LYVR weather

Vršac International Airport
South Banat, Serbia

Public forecast

Using degrees Celsius for public forecast. Weather courtesy of forecast.io.

Current aviation weather report (METAR) for Vršac International Airport

Retrieved 2020/01/18 02:30 UTC (11 minutes ago):

LYVR 180230Z AUTO 14015G33KT CAVOK 03/M02 Q1026

Aviation forecast (TAF) for Vršac International Airport

Retrieved 2020-01-18 00:00 UTC (3 hours ago):

TAF COR LYVR 172300Z 1800/1824 14020G35KT CAVOK TX08/1812Z TN04/1800Z BECMG 1817/1819 14014KT